sensor_id;sensor_type;location;lat;lon;timestamp;pressure;altitude;pressure_sealevel;temperature;humidity
75039;BME280;63609;49.992;14.512;2022-10-31T00:01:16;98493.25;;;11.59;65.21
75039;BME280;63609;49.992;14.512;2022-10-31T00:03:43;98487.09;;;11.58;65.07
75039;BME280;63609;49.992;14.512;2022-10-31T00:06:10;98497.47;;;11.61;65.08
75039;BME280;63609;49.992;14.512;2022-10-31T00:08:37;98494.97;;;11.60;65.12
75039;BME280;63609;49.992;14.512;2022-10-31T00:11:03;98494.38;;;11.56;64.56
75039;BME280;63609;49.992;14.512;2022-10-31T00:13:34;98496.34;;;11.54;65.75
75039;BME280;63609;49.992;14.512;2022-10-31T00:16:01;98501.25;;;11.59;64.96
75039;BME280;63609;49.992;14.512;2022-10-31T00:18:27;98491.03;;;11.64;64.80
75039;BME280;63609;49.992;14.512;2022-10-31T00:21:01;98494.53;;;11.55;64.83
75039;BME280;63609;49.992;14.512;2022-10-31T00:23:28;98496.34;;;11.54;65.05
75039;BME280;63609;49.992;14.512;2022-10-31T00:26:02;98494.94;;;11.50;65.33
75039;BME280;63609;49.992;14.512;2022-10-31T00:28:30;98486.03;;;11.40;65.54
75039;BME280;63609;49.992;14.512;2022-10-31T00:31:05;98488.66;;;11.30;66.31
75039;BME280;63609;49.992;14.512;2022-10-31T00:33:36;98490.22;;;11.33;66.51
75039;BME280;63609;49.992;14.512;2022-10-31T00:36:05;98497.50;;;11.31;66.67
75039;BME280;63609;49.992;14.512;2022-10-31T00:38:32;98486.13;;;11.08;67.61
75039;BME280;63609;49.992;14.512;2022-10-31T00:40:59;98487.78;;;10.78;68.61
75039;BME280;63609;49.992;14.512;2022-10-31T00:43:26;98496.44;;;10.92;69.03
75039;BME280;63609;49.992;14.512;2022-10-31T00:45:53;98490.50;;;11.09;68.27
75039;BME280;63609;49.992;14.512;2022-10-31T00:48:23;98486.78;;;11.21;67.39
75039;BME280;63609;49.992;14.512;2022-10-31T00:50:51;98496.22;;;11.25;67.07
75039;BME280;63609;49.992;14.512;2022-10-31T00:53:18;98494.97;;;11.29;66.70
75039;BME280;63609;49.992;14.512;2022-10-31T00:55:45;98495.63;;;11.22;66.28
75039;BME280;63609;49.992;14.512;2022-10-31T00:58:12;98499.56;;;11.27;65.70
75039;BME280;63609;49.992;14.512;2022-10-31T01:00:39;98499.06;;;11.12;66.83
75039;BME280;63609;49.992;14.512;2022-10-31T01:03:06;98506.94;;;10.93;67.43
75039;BME280;63609;49.992;14.512;2022-10-31T01:05:38;98503.38;;;10.51;69.16
75039;BME280;63609;49.992;14.512;2022-10-31T01:08:04;98495.16;;;10.22;69.25
75039;BME280;63609;49.992;14.512;2022-10-31T01:10:31;98499.72;;;9.77;71.07
75039;BME280;63609;49.992;14.512;2022-10-31T01:12:58;98497.00;;;10.42;69.58
75039;BME280;63609;49.992;14.512;2022-10-31T01:15:26;98495.03;;;10.76;67.78
75039;BME280;63609;49.992;14.512;2022-10-31T01:17:52;98501.75;;;10.92;67.40
75039;BME280;63609;49.992;14.512;2022-10-31T01:20:19;98497.94;;;10.84;67.38
75039;BME280;63609;49.992;14.512;2022-10-31T01:22:46;98493.66;;;10.61;68.57
75039;BME280;63609;49.992;14.512;2022-10-31T01:25:13;98504.78;;;11.08;66.33
75039;BME280;63609;49.992;14.512;2022-10-31T01:27:40;98505.41;;;10.91;67.30
75039;BME280;63609;49.992;14.512;2022-10-31T01:30:07;98495.88;;;10.56;68.00
75039;BME280;63609;49.992;14.512;2022-10-31T01:32:34;98500.69;;;10.83;67.14
75039;BME280;63609;49.992;14.512;2022-10-31T01:35:01;98498.44;;;10.99;66.62
75039;BME280;63609;49.992;14.512;2022-10-31T01:37:30;98492.66;;;10.94;67.01
75039;BME280;63609;49.992;14.512;2022-10-31T01:39:57;98494.78;;;10.47;68.76
75039;BME280;63609;49.992;14.512;2022-10-31T01:42:23;98505.41;;;10.58;68.92
75039;BME280;63609;49.992;14.512;2022-10-31T01:44:56;98504.47;;;10.80;67.95
75039;BME280;63609;49.992;14.512;2022-10-31T01:47:39;98501.63;;;10.93;67.26
75039;BME280;63609;49.992;14.512;2022-10-31T01:50:16;98501.09;;;10.78;67.83
75039;BME280;63609;49.992;14.512;2022-10-31T01:52:48;98504.16;;;10.63;68.65
75039;BME280;63609;49.992;14.512;2022-10-31T01:55:42;98509.59;;;9.97;71.55
75039;BME280;63609;49.992;14.512;2022-10-31T01:58:11;98504.31;;;9.86;71.75
75039;BME280;63609;49.992;14.512;2022-10-31T02:00:39;98501.75;;;9.95;71.33
75039;BME280;63609;49.992;14.512;2022-10-31T02:03:08;98501.53;;;9.87;71.02
75039;BME280;63609;49.992;14.512;2022-10-31T02:05:36;98494.13;;;10.34;69.62
75039;BME280;63609;49.992;14.512;2022-10-31T02:08:28;98500.22;;;10.25;69.54
75039;BME280;63609;49.992;14.512;2022-10-31T02:11:00;98494.06;;;10.45;68.84
75039;BME280;63609;49.992;14.512;2022-10-31T02:13:29;98491.56;;;10.65;67.75
75039;BME280;63609;49.992;14.512;2022-10-31T02:15:58;98491.78;;;10.52;68.48
75039;BME280;63609;49.992;14.512;2022-10-31T02:18:29;98486.66;;;10.60;67.89
75039;BME280;63609;49.992;14.512;2022-10-31T02:43:18;98495.03;;;10.55;67.41
75039;BME280;63609;49.992;14.512;2022-10-31T02:45:57;98489.88;;;10.64;67.31
75039;BME280;63609;49.992;14.512;2022-10-31T02:48:28;98491.09;;;10.71;67.06
75039;BME280;63609;49.992;14.512;2022-10-31T02:50:59;98494.19;;;10.76;66.79
75039;BME280;63609;49.992;14.512;2022-10-31T02:53:32;98493.22;;;10.77;66.35
75039;BME280;63609;49.992;14.512;2022-10-31T02:56:13;98499.25;;;10.79;65.91
75039;BME280;63609;49.992;14.512;2022-10-31T02:58:48;98504.56;;;10.15;67.13
75039;BME280;63609;49.992;14.512;2022-10-31T03:01:48;98506.03;;;10.19;67.25
75039;BME280;63609;49.992;14.512;2022-10-31T03:10:10;98500.44;;;9.45;69.90
75039;BME280;63609;49.992;14.512;2022-10-31T03:15:33;98512.03;;;8.76;72.07
75039;BME280;63609;49.992;14.512;2022-10-31T03:23:14;98502.69;;;9.16;70.83
75039;BME280;63609;49.992;14.512;2022-10-31T03:25:46;98507.28;;;9.14;71.04
75039;BME280;63609;49.992;14.512;2022-10-31T03:28:16;98502.56;;;9.07;71.19
75039;BME280;63609;49.992;14.512;2022-10-31T03:30:52;98507.59;;;9.33;70.72
75039;BME280;63609;49.992;14.512;2022-10-31T03:33:26;98513.22;;;9.96;68.34
75039;BME280;63609;49.992;14.512;2022-10-31T03:35:57;98505.25;;;9.96;68.46
75039;BME280;63609;49.992;14.512;2022-10-31T03:38:27;98509.97;;;9.25;70.66
75039;BME280;63609;49.992;14.512;2022-10-31T03:40:55;98510.72;;;8.81;72.48
75039;BME280;63609;49.992;14.512;2022-10-31T03:43:28;98512.81;;;9.00;72.16
75039;BME280;63609;49.992;14.512;2022-10-31T03:45:56;98511.31;;;8.73;72.65
75039;BME280;63609;49.992;14.512;2022-10-31T03:48:24;98523.75;;;9.30;71.06
75039;BME280;63609;49.992;14.512;2022-10-31T03:51:13;98513.91;;;9.09;71.43
75039;BME280;63609;49.992;14.512;2022-10-31T03:59:01;98519.22;;;9.20;70.56
75039;BME280;63609;49.992;14.512;2022-10-31T04:01:30;98519.06;;;9.34;70.34
75039;BME280;63609;49.992;14.512;2022-10-31T04:03:58;98521.13;;;9.64;68.72
75039;BME280;63609;49.992;14.512;2022-10-31T04:06:26;98523.75;;;9.86;67.80
75039;BME280;63609;49.992;14.512;2022-10-31T04:08:58;98531.47;;;10.01;66.63
75039;BME280;63609;49.992;14.512;2022-10-31T04:11:30;98525.28;;;10.00;66.54
75039;BME280;63609;49.992;14.512;2022-10-31T04:14:27;98525.28;;;10.00;66.37
75039;BME280;63609;49.992;14.512;2022-10-31T04:16:56;98523.34;;;10.02;66.07
75039;BME280;63609;49.992;14.512;2022-10-31T04:19:33;98524.59;;;9.87;66.86
75039;BME280;63609;49.992;14.512;2022-10-31T04:22:01;98529.03;;;9.98;66.56
75039;BME280;63609;49.992;14.512;2022-10-31T04:24:28;98525.66;;;9.95;65.93
75039;BME280;63609;49.992;14.512;2022-10-31T04:26:57;98530.53;;;9.90;65.88
75039;BME280;63609;49.992;14.512;2022-10-31T04:29:24;98531.50;;;9.67;66.56
75039;BME280;63609;49.992;14.512;2022-10-31T04:31:52;98535.00;;;9.45;67.88
75039;BME280;63609;49.992;14.512;2022-10-31T04:34:18;98541.56;;;9.17;69.15
75039;BME280;63609;49.992;14.512;2022-10-31T04:36:45;98545.41;;;9.13;69.36
75039;BME280;63609;49.992;14.512;2022-10-31T04:39:14;98543.59;;;9.02;70.29
75039;BME280;63609;49.992;14.512;2022-10-31T04:41:48;98544.69;;;8.65;71.81
75039;BME280;63609;49.992;14.512;2022-10-31T04:44:17;98551.53;;;8.32;72.68
75039;BME280;63609;49.992;14.512;2022-10-31T04:46:48;98558.06;;;8.63;72.15
75039;BME280;63609;49.992;14.512;2022-10-31T04:49:15;98547.31;;;8.89;71.06
75039;BME280;63609;49.992;14.512;2022-10-31T04:51:43;98550.28;;;8.84;70.76
75039;BME280;63609;49.992;14.512;2022-10-31T04:54:09;98549.41;;;9.19;69.80
75039;BME280;63609;49.992;14.512;2022-10-31T04:56:38;98553.72;;;9.55;68.05
75039;BME280;63609;49.992;14.512;2022-10-31T04:59:12;98547.47;;;9.10;69.12
75039;BME280;63609;49.992;14.512;2022-10-31T05:01:47;98549.75;;;9.03;69.34
75039;BME280;63609;49.992;14.512;2022-10-31T05:04:17;98561.16;;;9.27;69.14
75039;BME280;63609;49.992;14.512;2022-10-31T05:06:44;98549.72;;;9.38;68.19
75039;BME280;63609;49.992;14.512;2022-10-31T05:09:10;98550.56;;;9.39;67.62
75039;BME280;63609;49.992;14.512;2022-10-31T05:11:37;98545.47;;;9.24;67.63
75039;BME280;63609;49.992;14.512;2022-10-31T05:14:31;98540.53;;;9.42;66.84
75039;BME280;63609;49.992;14.512;2022-10-31T05:17:26;98543.44;;;9.39;67.19
75039;BME280;63609;49.992;14.512;2022-10-31T05:20:25;98550.09;;;9.33;67.83
75039;BME280;63609;49.992;14.512;2022-10-31T05:23:12;98541.38;;;9.43;67.15
75039;BME280;63609;49.992;14.512;2022-10-31T05:25:40;98541.75;;;9.38;67.05
75039;BME280;63609;49.992;14.512;2022-10-31T05:28:07;98542.59;;;9.50;66.64
75039;BME280;63609;49.992;14.512;2022-10-31T05:30:34;98547.31;;;9.46;66.63
75039;BME280;63609;49.992;14.512;2022-10-31T05:33:02;98545.25;;;9.39;66.59
75039;BME280;63609;49.992;14.512;2022-10-31T05:35:48;98545.97;;;9.29;67.27
75039;BME280;63609;49.992;14.512;2022-10-31T05:38:27;98542.00;;;9.35;66.90
75039;BME280;63609;49.992;14.512;2022-10-31T05:40:58;98549.25;;;9.55;66.26
75039;BME280;63609;49.992;14.512;2022-10-31T05:43:28;98552.13;;;9.52;65.41
75039;BME280;63609;49.992;14.512;2022-10-31T05:45:56;98543.31;;;9.41;66.05
75039;BME280;63609;49.992;14.512;2022-10-31T05:48:52;98544.88;;;9.43;65.95
75039;BME280;63609;49.992;14.512;2022-10-31T05:51:41;98549.13;;;9.34;65.37
75039;BME280;63609;49.992;14.512;2022-10-31T05:54:08;98552.84;;;9.32;65.29
75039;BME280;63609;49.992;14.512;2022-10-31T05:56:43;98554.16;;;9.26;65.00
75039;BME280;63609;49.992;14.512;2022-10-31T05:59:09;98555.44;;;9.10;65.53
75039;BME280;63609;49.992;14.512;2022-10-31T06:01:38;98562.31;;;9.12;65.44
75039;BME280;63609;49.992;14.512;2022-10-31T06:04:13;98561.72;;;9.20;65.68
75039;BME280;63609;49.992;14.512;2022-10-31T06:06:41;98562.34;;;9.23;65.44
75039;BME280;63609;49.992;14.512;2022-10-31T06:09:08;98566.78;;;9.12;66.18
75039;BME280;63609;49.992;14.512;2022-10-31T06:11:36;98570.78;;;9.17;65.80
75039;BME280;63609;49.992;14.512;2022-10-31T06:14:03;98568.41;;;9.25;65.55
75039;BME280;63609;49.992;14.512;2022-10-31T06:16:44;98566.66;;;9.02;65.00
75039;BME280;63609;49.992;14.512;2022-10-31T06:19:29;98564.47;;;8.96;65.66
75039;BME280;63609;49.992;14.512;2022-10-31T06:21:57;98572.09;;;9.12;65.45
75039;BME280;63609;49.992;14.512;2022-10-31T06:24:24;98571.59;;;9.07;65.83
75039;BME280;63609;49.992;14.512;2022-10-31T06:27:02;98574.06;;;9.21;66.18
75039;BME280;63609;49.992;14.512;2022-10-31T06:29:31;98575.84;;;9.20;66.44
75039;BME280;63609;49.992;14.512;2022-10-31T06:32:10;98578.91;;;9.27;66.03
75039;BME280;63609;49.992;14.512;2022-10-31T06:34:41;98576.59;;;9.22;66.02
75039;BME280;63609;49.992;14.512;2022-10-31T06:37:12;98578.50;;;9.20;66.40
75039;BME280;63609;49.992;14.512;2022-10-31T06:39:42;98584.88;;;8.71;68.68
75039;BME280;63609;49.992;14.512;2022-10-31T06:42:11;98587.31;;;8.86;69.06
75039;BME280;63609;49.992;14.512;2022-10-31T06:44:38;98585.84;;;9.06;68.86
75039;BME280;63609;49.992;14.512;2022-10-31T06:47:23;98584.97;;;9.40;67.18
75039;BME280;63609;49.992;14.512;2022-10-31T06:50:04;98581.34;;;9.41;67.00
75039;BME280;63609;49.992;14.512;2022-10-31T06:52:31;98587.75;;;9.39;66.97
75039;BME280;63609;49.992;14.512;2022-10-31T06:54:58;98585.81;;;9.41;67.66
75039;BME280;63609;49.992;14.512;2022-10-31T06:57:29;98580.41;;;9.64;66.71
75039;BME280;63609;49.992;14.512;2022-10-31T06:59:56;98585.75;;;9.87;66.75
75039;BME280;63609;49.992;14.512;2022-10-31T07:02:41;98591.28;;;10.06;65.75
75039;BME280;63609;49.992;14.512;2022-10-31T07:05:08;98588.25;;;10.22;65.17
75039;BME280;63609;49.992;14.512;2022-10-31T07:07:35;98592.34;;;10.26;65.33
75039;BME280;63609;49.992;14.512;2022-10-31T07:10:02;98591.66;;;10.56;65.27
75039;BME280;63609;49.992;14.512;2022-10-31T07:12:58;98597.91;;;10.66;64.86
75039;BME280;63609;49.992;14.512;2022-10-31T07:15:29;98600.84;;;10.63;65.16
75039;BME280;63609;49.992;14.512;2022-10-31T07:18:01;98596.84;;;10.69;65.84
75039;BME280;63609;49.992;14.512;2022-10-31T07:20:30;98610.59;;;10.85;65.19
75039;BME280;63609;49.992;14.512;2022-10-31T07:22:58;98608.72;;;10.53;66.63
75039;BME280;63609;49.992;14.512;2022-10-31T07:25:26;98606.19;;;10.41;67.25
75039;BME280;63609;49.992;14.512;2022-10-31T07:28:02;98601.00;;;10.94;65.81
75039;BME280;63609;49.992;14.512;2022-10-31T07:30:29;98603.47;;;11.06;66.03
75039;BME280;63609;49.992;14.512;2022-10-31T07:32:56;98600.34;;;11.43;65.11
75039;BME280;63609;49.992;14.512;2022-10-31T07:35:40;98610.31;;;11.20;65.25
75039;BME280;63609;49.992;14.512;2022-10-31T07:38:14;98607.72;;;11.30;65.97
75039;BME280;63609;49.992;14.512;2022-10-31T07:40:49;98609.31;;;11.63;64.83
75039;BME280;63609;49.992;14.512;2022-10-31T07:43:17;98597.31;;;11.27;65.62
75039;BME280;63609;49.992;14.512;2022-10-31T07:46:04;98610.91;;;11.24;66.53
75039;BME280;63609;49.992;14.512;2022-10-31T07:48:49;98616.59;;;10.98;67.29
75039;BME280;63609;49.992;14.512;2022-10-31T07:51:34;98620.97;;;11.20;67.26
75039;BME280;63609;49.992;14.512;2022-10-31T07:54:33;98618.00;;;11.02;66.96
75039;BME280;63609;49.992;14.512;2022-10-31T07:57:00;98617.44;;;10.55;69.34
75039;BME280;63609;49.992;14.512;2022-10-31T07:59:27;98618.41;;;11.39;66.89
75039;BME280;63609;49.992;14.512;2022-10-31T08:01:54;98614.13;;;11.06;67.30
75039;BME280;63609;49.992;14.512;2022-10-31T08:04:29;98626.66;;;11.15;68.23
75039;BME280;63609;49.992;14.512;2022-10-31T08:07:15;98620.72;;;11.95;65.11
75039;BME280;63609;49.992;14.512;2022-10-31T08:09:47;98619.19;;;11.93;65.47
75039;BME280;63609;49.992;14.512;2022-10-31T08:12:20;98617.94;;;11.97;66.57
75039;BME280;63609;49.992;14.512;2022-10-31T08:14:47;98619.50;;;12.09;66.19
75039;BME280;63609;49.992;14.512;2022-10-31T08:17:16;98613.38;;;11.88;67.36
75039;BME280;63609;49.992;14.512;2022-10-31T08:19:50;98612.94;;;12.72;65.45
75039;BME280;63609;49.992;14.512;2022-10-31T08:22:18;98613.25;;;12.79;64.62
75039;BME280;63609;49.992;14.512;2022-10-31T08:24:47;98606.94;;;13.09;63.48
75039;BME280;63609;49.992;14.512;2022-10-31T08:27:14;98602.97;;;13.32;63.32
75039;BME280;63609;49.992;14.512;2022-10-31T08:29:40;98614.34;;;13.54;62.81
75039;BME280;63609;49.992;14.512;2022-10-31T08:32:07;98610.06;;;13.71;62.71
75039;BME280;63609;49.992;14.512;2022-10-31T08:34:53;98614.09;;;12.89;65.31
75039;BME280;63609;49.992;14.512;2022-10-31T08:37:31;98613.34;;;13.55;64.27
75039;BME280;63609;49.992;14.512;2022-10-31T08:39:58;98613.84;;;13.87;63.51
75039;BME280;63609;49.992;14.512;2022-10-31T08:42:25;98612.69;;;13.33;64.39
75039;BME280;63609;49.992;14.512;2022-10-31T08:44:52;98612.44;;;13.74;63.74
75039;BME280;63609;49.992;14.512;2022-10-31T08:47:20;98612.78;;;13.98;63.16
75039;BME280;63609;49.992;14.512;2022-10-31T08:49:47;98616.81;;;13.75;64.09
75039;BME280;63609;49.992;14.512;2022-10-31T08:52:14;98611.47;;;14.49;62.63
75039;BME280;63609;49.992;14.512;2022-10-31T08:54:45;98611.16;;;14.70;62.61
75039;BME280;63609;49.992;14.512;2022-10-31T08:57:54;98608.66;;;14.41;63.70
75039;BME280;63609;49.992;14.512;2022-10-31T09:00:23;98605.22;;;14.93;62.41
75039;BME280;63609;49.992;14.512;2022-10-31T09:03:16;98599.63;;;15.40;61.33
75039;BME280;63609;49.992;14.512;2022-10-31T09:05:43;98606.59;;;15.15;61.73
75039;BME280;63609;49.992;14.512;2022-10-31T09:08:11;98600.53;;;15.49;61.45
75039;BME280;63609;49.992;14.512;2022-10-31T09:10:43;98599.94;;;15.63;61.44
75039;BME280;63609;49.992;14.512;2022-10-31T09:13:16;98594.00;;;15.77;61.04
75039;BME280;63609;49.992;14.512;2022-10-31T09:16:01;98596.91;;;15.84;60.31
75039;BME280;63609;49.992;14.512;2022-10-31T09:18:29;98596.84;;;15.76;60.15
75039;BME280;63609;49.992;14.512;2022-10-31T09:20:59;98601.47;;;15.66;62.16
75039;BME280;63609;49.992;14.512;2022-10-31T09:23:29;98603.63;;;15.88;61.26
75039;BME280;63609;49.992;14.512;2022-10-31T09:25:59;98601.00;;;15.70;61.54
75039;BME280;63609;49.992;14.512;2022-10-31T09:28:44;98603.94;;;16.45;59.87
75039;BME280;63609;49.992;14.512;2022-10-31T09:31:16;98598.91;;;16.50;58.95
75039;BME280;63609;49.992;14.512;2022-10-31T09:34:18;98601.13;;;15.95;61.63
75039;BME280;63609;49.992;14.512;2022-10-31T09:37:05;98608.03;;;16.73;59.88
75039;BME280;63609;49.992;14.512;2022-10-31T09:39:34;98610.47;;;17.09;57.96
75039;BME280;63609;49.992;14.512;2022-10-31T09:45:16;98607.03;;;15.98;62.22
75039;BME280;63609;49.992;14.512;2022-10-31T09:48:06;98620.31;;;16.34;60.62
75039;BME280;63609;49.992;14.512;2022-10-31T09:54:00;98610.41;;;16.85;59.89
75039;BME280;63609;49.992;14.512;2022-10-31T09:56:31;98600.91;;;17.39;58.16
75039;BME280;63609;49.992;14.512;2022-10-31T09:59:03;98602.25;;;17.19;58.24
75039;BME280;63609;49.992;14.512;2022-10-31T10:04:37;98606.56;;;17.93;56.49
75039;BME280;63609;49.992;14.512;2022-10-31T10:07:39;98614.44;;;18.11;55.76
75039;BME280;63609;49.992;14.512;2022-10-31T10:11:01;98601.53;;;18.29;56.06
75039;BME280;63609;49.992;14.512;2022-10-31T10:16:06;98603.41;;;18.68;55.48
75039;BME280;63609;49.992;14.512;2022-10-31T10:29:58;98600.34;;;18.71;54.71
75039;BME280;63609;49.992;14.512;2022-10-31T10:32:30;98592.06;;;18.80;54.81
75039;BME280;63609;49.992;14.512;2022-10-31T10:35:11;98586.03;;;18.70;54.60
75039;BME280;63609;49.992;14.512;2022-10-31T10:37:44;98584.38;;;18.92;54.63
75039;BME280;63609;49.992;14.512;2022-10-31T10:42:40;98580.94;;;19.06;54.09
75039;BME280;63609;49.992;14.512;2022-10-31T10:45:26;98577.50;;;19.35;52.98
75039;BME280;63609;49.992;14.512;2022-10-31T10:51:10;98583.75;;;19.50;52.18
75039;BME280;63609;49.992;14.512;2022-10-31T10:57:30;98568.53;;;19.58;52.65
75039;BME280;63609;49.992;14.512;2022-10-31T11:00:02;98565.66;;;19.36;53.13
75039;BME280;63609;49.992;14.512;2022-10-31T11:02:33;98566.13;;;19.02;53.45
75039;BME280;63609;49.992;14.512;2022-10-31T11:05:01;98551.50;;;18.97;54.34
75039;BME280;63609;49.992;14.512;2022-10-31T11:07:39;98560.94;;;19.15;53.26
75039;BME280;63609;49.992;14.512;2022-10-31T11:10:12;98563.25;;;19.41;53.22
75039;BME280;63609;49.992;14.512;2022-10-31T11:12:45;98565.97;;;19.41;53.13
75039;BME280;63609;49.992;14.512;2022-10-31T11:15:19;98561.59;;;19.40;52.68
75039;BME280;63609;49.992;14.512;2022-10-31T11:17:51;98566.31;;;19.38;52.96
75039;BME280;63609;49.992;14.512;2022-10-31T11:22:47;98576.38;;;19.44;53.20
75039;BME280;63609;49.992;14.512;2022-10-31T11:25:22;98571.81;;;19.68;51.77
75039;BME280;63609;49.992;14.512;2022-10-31T11:28:03;98560.88;;;19.61;52.02
75039;BME280;63609;49.992;14.512;2022-10-31T11:30:42;98558.47;;;19.29;52.77
75039;BME280;63609;49.992;14.512;2022-10-31T11:35:52;98554.59;;;19.98;50.36
75039;BME280;63609;49.992;14.512;2022-10-31T11:38:46;98558.88;;;20.37;49.46
75039;BME280;63609;49.992;14.512;2022-10-31T11:43:59;98553.19;;;20.32;50.33
75039;BME280;63609;49.992;14.512;2022-10-31T11:46:38;98549.59;;;20.61;50.23
75039;BME280;63609;49.992;14.512;2022-10-31T11:49:15;98541.94;;;20.64;49.47
75039;BME280;63609;49.992;14.512;2022-10-31T11:51:43;98535.56;;;20.72;49.57
75039;BME280;63609;49.992;14.512;2022-10-31T11:54:49;98527.50;;;20.78;48.98
75039;BME280;63609;49.992;14.512;2022-10-31T11:57:42;98529.25;;;20.86;49.36
75039;BME280;63609;49.992;14.512;2022-10-31T12:00:23;98529.44;;;20.85;48.95
75039;BME280;63609;49.992;14.512;2022-10-31T12:08:39;98513.41;;;20.83;48.15
75039;BME280;63609;49.992;14.512;2022-10-31T12:17:13;98512.19;;;20.86;48.40
75039;BME280;63609;49.992;14.512;2022-10-31T12:22:56;98504.25;;;20.84;48.90
75039;BME280;63609;49.992;14.512;2022-10-31T12:31:07;98505.53;;;20.88;47.71
75039;BME280;63609;49.992;14.512;2022-10-31T12:50:22;98486.91;;;21.21;47.25
75039;BME280;63609;49.992;14.512;2022-10-31T16:35:21;98348.56;;;13.47;64.00
75039;BME280;63609;49.992;14.512;2022-10-31T16:37:50;98340.88;;;13.34;64.46
75039;BME280;63609;49.992;14.512;2022-10-31T16:40:17;98352.16;;;13.55;63.54
75039;BME280;63609;49.992;14.512;2022-10-31T16:42:45;98343.06;;;13.66;62.84
75039;BME280;63609;49.992;14.512;2022-10-31T16:45:23;98340.91;;;13.69;62.79
75039;BME280;63609;49.992;14.512;2022-10-31T16:47:51;98349.31;;;13.75;62.54
75039;BME280;63609;49.992;14.512;2022-10-31T16:50:23;98353.22;;;13.62;62.56
75039;BME280;63609;49.992;14.512;2022-10-31T16:52:51;98340.91;;;13.69;62.71
75039;BME280;63609;49.992;14.512;2022-10-31T16:55:42;98335.09;;;13.56;62.43
75039;BME280;63609;49.992;14.512;2022-10-31T16:58:32;98335.47;;;13.44;63.01
75039;BME280;63609;49.992;14.512;2022-10-31T17:01:05;98337.44;;;13.42;62.80
75039;BME280;63609;49.992;14.512;2022-10-31T17:03:48;98335.81;;;13.31;63.17
75039;BME280;63609;49.992;14.512;2022-10-31T17:06:32;98340.16;;;13.14;63.97
75039;BME280;63609;49.992;14.512;2022-10-31T17:09:00;98338.88;;;13.36;63.01
75039;BME280;63609;49.992;14.512;2022-10-31T17:11:26;98339.84;;;13.17;63.87
75039;BME280;63609;49.992;14.512;2022-10-31T17:13:53;98334.94;;;13.13;63.55
75039;BME280;63609;49.992;14.512;2022-10-31T17:16:22;98340.59;;;13.00;64.24
75039;BME280;63609;49.992;14.512;2022-10-31T17:18:49;98336.19;;;13.18;63.29
75039;BME280;63609;49.992;14.512;2022-10-31T17:21:19;98347.06;;;12.97;64.25
75039;BME280;63609;49.992;14.512;2022-10-31T17:23:51;98342.00;;;12.57;65.08
75039;BME280;63609;49.992;14.512;2022-10-31T17:26:20;98337.81;;;12.45;65.81
75039;BME280;63609;49.992;14.512;2022-10-31T17:28:46;98339.94;;;12.32;65.99
75039;BME280;63609;49.992;14.512;2022-10-31T17:31:26;98343.88;;;12.37;65.75
75039;BME280;63609;49.992;14.512;2022-10-31T17:33:54;98345.16;;;12.04;67.05
75039;BME280;63609;49.992;14.512;2022-10-31T17:36:29;98342.63;;;12.12;66.63
75039;BME280;63609;49.992;14.512;2022-10-31T17:38:56;98334.34;;;12.06;67.04
75039;BME280;63609;49.992;14.512;2022-10-31T17:41:23;98335.91;;;12.18;66.16
75039;BME280;63609;49.992;14.512;2022-10-31T17:43:57;98329.84;;;12.26;66.10
75039;BME280;63609;49.992;14.512;2022-10-31T17:46:26;98334.63;;;12.12;66.40
75039;BME280;63609;49.992;14.512;2022-10-31T17:48:57;98331.38;;;12.28;65.67
75039;BME280;63609;49.992;14.512;2022-10-31T17:51:26;98338.16;;;12.03;67.12
75039;BME280;63609;49.992;14.512;2022-10-31T17:53:53;98339.97;;;12.22;66.48
75039;BME280;63609;49.992;14.512;2022-10-31T17:56:19;98332.19;;;12.38;65.64
75039;BME280;63609;49.992;14.512;2022-10-31T17:58:46;98327.41;;;12.42;65.66
75039;BME280;63609;49.992;14.512;2022-10-31T18:01:15;98328.19;;;12.15;66.03
75039;BME280;63609;49.992;14.512;2022-10-31T18:03:43;98324.81;;;12.03;66.72
75039;BME280;63609;49.992;14.512;2022-10-31T18:06:11;98321.88;;;12.16;65.92
75039;BME280;63609;49.992;14.512;2022-10-31T18:08:40;98321.31;;;11.93;66.59
75039;BME280;63609;49.992;14.512;2022-10-31T18:11:09;98320.34;;;11.94;67.50
75039;BME280;63609;49.992;14.512;2022-10-31T18:13:37;98311.44;;;12.13;66.24
75039;BME280;63609;49.992;14.512;2022-10-31T18:16:14;98315.66;;;12.25;65.31
75039;BME280;63609;49.992;14.512;2022-10-31T18:18:41;98309.59;;;12.33;65.19
75039;BME280;63609;49.992;14.512;2022-10-31T18:21:08;98302.91;;;12.19;65.63
75039;BME280;63609;49.992;14.512;2022-10-31T18:23:35;98297.00;;;12.06;65.85
75039;BME280;63609;49.992;14.512;2022-10-31T18:26:02;98290.72;;;11.97;66.58
75039;BME280;63609;49.992;14.512;2022-10-31T18:28:29;98289.56;;;12.19;65.53
75039;BME280;63609;49.992;14.512;2022-10-31T18:30:59;98297.69;;;12.27;65.16
75039;BME280;63609;49.992;14.512;2022-10-31T18:33:26;98298.41;;;11.81;66.42
75039;BME280;63609;49.992;14.512;2022-10-31T18:35:53;98298.28;;;12.02;66.42
75039;BME280;63609;49.992;14.512;2022-10-31T18:38:20;98301.63;;;12.04;65.97
75039;BME280;63609;49.992;14.512;2022-10-31T18:40:47;98309.06;;;12.29;65.64
75039;BME280;63609;49.992;14.512;2022-10-31T18:43:14;98318.00;;;12.48;64.62
75039;BME280;63609;49.992;14.512;2022-10-31T18:45:41;98315.91;;;12.51;64.62
75039;BME280;63609;49.992;14.512;2022-10-31T18:48:15;98301.31;;;12.36;65.09
75039;BME280;63609;49.992;14.512;2022-10-31T18:50:42;98311.91;;;11.99;66.62
75039;BME280;63609;49.992;14.512;2022-10-31T18:53:09;98300.38;;;12.18;65.67
75039;BME280;63609;49.992;14.512;2022-10-31T18:55:38;98292.50;;;12.06;66.62
75039;BME280;63609;49.992;14.512;2022-10-31T18:58:16;98290.41;;;11.91;67.19
75039;BME280;63609;49.992;14.512;2022-10-31T19:00:43;98279.88;;;11.89;67.61
75039;BME280;63609;49.992;14.512;2022-10-31T19:03:12;98286.06;;;12.19;65.99